Terminal Aerodrome Forecast
Issued by NWS Grand Forks, ND

Home | Current Version | Previous Version | Graphics & Text | Print | Product List | Glossary On
Versions: 1 2 3 4 5 6 7 8 9 10 11 12 13 14
605
FTUS43 KFGF 232323
TAFFAR
TAF
KFAR 232323Z 2400/2424 01011KT P6SM FEW200
     FM240800 36010KT P6SM BKN080
     FM241500 36013G18KT P6SM BKN080=

USA.gov is the U.S. government's official web portal to all federal, state and local government web resources and services.